Time;durP1;ratioP1;P1;durP2;ratioP2;P2;SDS_P1;SDS_P2;PMS_P1;PMS_P2;Temp;Humidity;BMP_temperature;BMP_pressure;BME280_temperature;BME280_humidity;BME280_pressure;Samples;Min_cycle;Max_cycle;Signal;HPM_P1;HPM_P2
2022/06/13 00:00:37;;;;;;;10.60;3.83;;;;;;;14.64;72.23;101312.89;1688276;84;21757;-84
2022/06/13 00:03:06;;;;;;;10.10;4.17;;;;;;;14.66;72.27;101315.53;1630950;84;21127;-83
2022/06/13 00:05:35;;;;;;;12.10;4.12;;;;;;;14.64;72.18;101312.89;1630734;87;21134;-87
2022/06/13 00:08:02;;;;;;;12.37;4.20;;;;;;;14.65;72.32;101312.00;1631146;87;21107;-87
2022/06/13 00:10:37;;;;;;;13.90;4.53;;;;;;;14.67;72.33;101309.39;1634765;87;21103;-84
2022/06/13 00:13:05;;;;;;;9.95;3.58;;;;;;;14.68;72.28;101303.23;1630830;87;21716;-86
2022/06/13 00:15:31;;;;;;;10.48;4.40;;;;;;;14.69;72.32;101301.91;1634639;87;21162;-86
2022/06/13 00:17:59;;;;;;;9.15;3.72;;;;;;;14.69;72.32;101301.91;1626692;86;21151;-85
2022/06/13 00:20:31;;;;;;;10.35;3.80;;;;;;;14.69;72.33;101304.56;1588430;87;21119;-83
2022/06/13 00:22:59;;;;;;;8.93;4.33;;;;;;;14.74;72.42;101305.54;1631186;87;21261;-86
2022/06/13 00:25:25;;;;;;;10.65;3.80;;;;;;;14.77;72.27;101298.06;1631004;87;21817;-86
2022/06/13 00:27:52;;;;;;;10.00;4.08;;;;;;;14.76;72.28;101289.67;1630715;87;21738;-87
2022/06/13 00:30:21;;;;;;;10.15;4.10;;;;;;;14.76;72.18;101289.67;1630097;87;21152;-86
2022/06/13 00:32:47;;;;;;;10.68;4.35;;;;;;;14.76;72.21;101285.25;1630642;87;21162;-84
2022/06/13 00:35:17;;;;;;;10.35;4.50;;;;;;;14.78;72.29;101278.66;1632489;87;21141;-87
2022/06/13 00:37:44;;;;;;;9.53;4.25;;;;;;;14.78;72.30;101282.19;1632821;87;21773;-84
2022/06/13 00:40:11;;;;;;;8.28;4.15;;;;;;;14.78;72.26;101276.89;1650046;84;21079;-88
2022/06/13 00:42:38;;;;;;;13.10;4.30;;;;;;;14.80;72.31;101276.92;1709172;83;21122;-87
2022/06/13 00:45:22;;;;;;;10.40;3.70;;;;;;;14.79;72.13;101272.51;1706238;83;21571;-85
2022/06/13 00:47:53;;;;;;;8.38;3.58;;;;;;;14.76;72.17;101269.35;1763500;80;21126;-87
2022/06/13 00:50:27;;;;;;;9.78;4.00;;;;;;;14.77;72.19;101264.53;1766708;80;22556;-87
2022/06/13 00:53:09;;;;;;;10.78;4.05;;;;;;;14.75;72.13;101262.70;1741873;82;21043;-85
2022/06/13 00:55:46;;;;;;;8.80;3.22;;;;;;;14.73;72.14;101259.13;1707078;84;21055;-87
2022/06/13 00:58:13;;;;;;;10.98;3.80;;;;;;;14.70;72.16;101257.34;1764861;80;21078;-87
2022/06/13 01:00:41;;;;;;;9.48;3.80;;;;;;;14.68;72.16;101256.42;1765012;80;21084;-86
2022/06/13 01:03:07;;;;;;;9.20;3.52;;;;;;;14.65;72.21;101256.80;1744518;81;21803;-84
2022/06/13 01:05:38;;;;;;;11.28;4.12;;;;;;;14.62;72.33;101253.69;1745060;81;21268;-88
2022/06/13 01:08:07;;;;;;;13.53;4.05;;;;;;;14.61;72.45;101251.00;1746450;81;21090;-87
2022/06/13 01:13:21;;;;;;;8.85;3.70;;;;;;;14.56;72.43;101252.20;1711290;83;21066;-84
2022/06/13 01:16:08;;;;;;;6.97;3.77;;;;;;;14.55;72.52;101248.67;1784209;80;21737;-87
2022/06/13 01:19:13;;;;;;;11.05;3.75;;;;;;;14.55;72.54;101241.16;1779740;80;21054;-87
2022/06/13 01:22:00;;;;;;;13.32;4.20;;;;;;;14.55;72.63;101241.16;1722539;79;21065;-86
2022/06/13 01:24:38;;;;;;;10.65;4.25;;;;;;;14.52;72.53;101235.36;1683614;84;22169;-88
2022/06/13 01:27:39;;;;;;;15.78;4.90;;;;;;;14.49;72.54;101237.98;1743778;81;21063;-87
2022/06/13 01:30:45;;;;;;;8.98;3.75;;;;;;;14.48;72.61;101244.57;1741462;82;21819;-85
2022/06/13 01:33:34;;;;;;;14.03;4.30;;;;;;;14.46;72.71;101245.86;1745851;80;21078;-88
2022/06/13 01:36:32;;;;;;;9.90;4.20;;;;;;;14.43;72.73;101251.09;1746250;81;21145;-84
2022/06/13 01:39:16;;;;;;;12.00;3.83;;;;;;;14.38;72.85;101242.20;1746607;81;22327;-88
2022/06/13 01:42:06;;;;;;;9.90;3.60;;;;;;;14.43;72.92;101242.27;1746398;81;21093;-84
2022/06/13 01:44:47;;;;;;;7.37;3.20;;;;;;;14.41;72.89;101240.91;1746563;80;21784;-88
2022/06/13 01:47:50;;;;;;;9.93;4.37;;;;;;;14.40;72.92;101240.47;1746145;80;22202;-84
2022/06/13 01:50:27;;;;;;;9.90;4.10;;;;;;;14.39;72.95;101239.55;1719822;81;21114;-87
2022/06/13 01:53:20;;;;;;;8.30;3.62;;;;;;;14.39;72.94;101243.53;1745775;81;21174;-88
2022/06/13 01:56:00;;;;;;;7.95;4.00;;;;;;;14.37;72.94;101242.61;1740098;82;21157;-89
2022/06/13 01:58:57;;;;;;;7.30;3.05;;;;;;;14.33;72.92;101247.41;1781453;80;22829;-85
2022/06/13 02:01:45;;;;;;;6.67;3.10;;;;;;;14.29;72.95;101242.92;1781198;80;21068;-88
2022/06/13 02:04:30;;;;;;;10.45;3.42;;;;;;;14.28;73.06;101245.54;1724552;82;21497;-87
2022/06/13 02:07:18;;;;;;;8.75;3.20;;;;;;;14.30;73.08;101245.12;1736292;80;21031;-84
2022/06/13 02:09:53;;;;;;;5.97;3.45;;;;;;;14.27;73.07;101244.66;1702192;82;21119;-86
2022/06/13 02:12:20;;;;;;;5.60;3.20;;;;;;;14.26;73.13;101241.53;1734857;82;22508;-86
2022/06/13 02:14:53;;;;;;;8.53;3.20;;;;;;;14.24;73.16;101244.59;1734768;81;20972;-87
2022/06/13 02:17:23;;;;;;;9.00;3.60;;;;;;;14.21;73.21;101241.91;1743666;80;21066;-85
2022/06/13 02:20:09;;;;;;;6.83;3.92;;;;;;;14.20;73.24;101238.34;1719076;81;21602;-88
2022/06/13 02:22:49;;;;;;;9.58;3.45;;;;;;;14.20;73.30;101243.64;1734550;81;21093;-89
2022/06/13 02:25:36;;;;;;;8.18;3.17;;;;;;;14.22;73.31;101237.50;1732781;81;21733;-85
2022/06/13 02:28:11;;;;;;;6.55;3.12;;;;;;;14.22;73.32;101234.84;1737096;81;21075;-88
2022/06/13 02:30:50;;;;;;;6.53;3.15;;;;;;;14.25;73.36;101234.47;1741052;80;21408;-84
2022/06/13 02:33:22;;;;;;;11.95;4.03;;;;;;;14.26;73.39;101237.56;1737263;80;21677;-85
2022/06/13 02:36:09;;;;;;;13.38;3.95;;;;;;;14.28;73.38;101231.86;1733305;81;21122;-87
2022/06/13 02:38:47;;;;;;;7.33;3.30;;;;;;;14.31;73.44;101225.74;1733099;80;21725;-84
2022/06/13 02:41:19;;;;;;;8.58;3.35;;;;;;;14.36;73.45;101226.72;1733556;81;21154;-86
2022/06/13 02:44:01;;;;;;;7.30;4.00;;;;;;;14.38;73.37;101221.91;1733537;81;21078;-87
2022/06/13 02:46:42;;;;;;;7.78;3.65;;;;;;;14.42;73.33;101219.31;1732012;80;21043;-84
2022/06/13 02:49:40;;;;;;;10.13;3.50;;;;;;;14.45;73.34;101220.26;1732226;80;21078;-84
2022/06/13 02:51:59;;;;;;;7.37;3.45;;;;;;;14.49;73.33;101219.44;1727025;82;22004;-87
2022/06/13 02:54:33;;;;;;;10.95;3.52;;;;;;;14.51;73.27;101211.08;1733844;82;21552;-88
2022/06/13 02:57:24;;;;;;;10.85;3.83;;;;;;;14.52;73.28;101210.20;1732930;82;21062;-84
2022/06/13 03:00:21;;;;;;;11.33;3.95;;;;;;;14.52;73.23;101206.22;1738913;82;21074;-84
2022/06/13 03:03:02;;;;;;;6.50;3.00;;;;;;;14.52;73.16;101197.39;1753013;80;21076;-91
2022/06/13 03:05:57;;;;;;;11.33;3.30;;;;;;;14.52;73.10;101195.63;1775389;80;22634;-85
2022/06/13 03:08:49;;;;;;;10.08;3.80;;;;;;;14.56;73.12;101196.16;1776075;80;21054;-88
2022/06/13 03:11:35;;;;;;;7.80;3.45;;;;;;;14.53;72.97;101191.25;1760243;80;21072;-89
2022/06/13 03:14:33;;;;;;;8.68;3.22;;;;;;;14.52;72.99;101192.98;1771616;80;21456;-87
2022/06/13 03:17:13;;;;;;;8.68;3.65;;;;;;;14.61;73.16;101194.05;1767299;80;21574;-86
2022/06/13 03:19:51;;;;;;;6.83;3.12;;;;;;;14.78;73.32;101193.41;1775315;80;21807;-86
2022/06/13 03:22:43;;;;;;;6.50;3.42;;;;;;;14.92;73.04;101204.23;1775643;80;21050;-87
2022/06/13 03:25:41;;;;;;;8.65;3.85;;;;;;;15.00;72.77;101202.10;1767225;80;21141;-86
2022/06/13 03:28:28;;;;;;;9.23;3.95;;;;;;;15.02;72.60;101201.72;1775603;80;21068;-85
2022/06/13 03:31:11;;;;;;;6.55;3.27;;;;;;;15.01;72.42;101205.22;1763326;80;21076;-87
2022/06/13 03:33:42;;;;;;;7.67;4.03;;;;;;;15.01;72.51;101199.92;1773770;80;21852;-85
2022/06/13 03:36:39;;;;;;;8.58;4.08;;;;;;;15.04;72.43;101199.98;1774158;80;21077;-87
2022/06/13 03:39:34;;;;;;;10.70;3.47;;;;;;;15.09;72.46;101194.28;1761690;80;21717;-87
2022/06/13 03:42:19;;;;;;;10.40;3.40;;;;;;;15.23;72.54;101191.83;1772239;80;21061;-88
2022/06/13 03:45:05;;;;;;;12.35;3.70;;;;;;;15.50;72.55;101183.31;1776048;80;21069;-86
2022/06/13 03:47:46;;;;;;;8.68;3.95;;;;;;;15.78;72.48;101177.02;1760542;80;21775;-85
2022/06/13 03:50:18;;;;;;;8.08;3.60;;;;;;;16.09;72.16;101177.77;1771515;80;21060;-89
2022/06/13 03:52:50;;;;;;;9.78;3.47;;;;;;;16.40;71.94;101171.38;1761973;80;21072;-85
2022/06/13 03:55:26;;;;;;;6.62;3.55;;;;;;;16.62;71.32;101172.88;1770882;80;21121;-88
2022/06/13 03:57:57;;;;;;;11.93;3.33;;;;;;;16.75;70.88;101172.53;1734408;80;21160;-87
2022/06/13 04:00:29;;;;;;;8.68;3.37;;;;;;;16.90;70.80;101167.33;1709241;83;21985;-85
2022/06/13 04:02:56;;;;;;;6.87;3.17;;;;;;;17.15;70.54;101165.67;1748433;80;21102;-89
2022/06/13 04:05:31;;;;;;;7.80;3.17;;;;;;;17.60;70.71;101160.06;1721772;82;21076;-89
2022/06/13 04:07:58;;;;;;;7.67;3.37;;;;;;;18.34;70.52;101151.30;1758950;80;21087;-86
2022/06/13 04:10:25;;;;;;;6.10;3.22;;;;;;;19.23;70.31;101151.13;1771798;80;22268;-87
2022/06/13 04:13:22;;;;;;;6.75;2.90;;;;;;;20.76;70.06;101146.48;1771328;80;22415;-89
2022/06/13 04:15:58;;;;;;;9.88;2.98;;;;;;;22.40;68.37;101145.57;1771140;80;21055;-84
2022/06/13 04:18:36;;;;;;;6.97;2.98;;;;;;;26.45;64.74;101109.48;1770582;79;21672;-89
2022/06/13 04:21:45;;;;;;;5.85;2.72;;;;;;;26.45;64.74;101109.48;1771334;79;21057;-88
2022/06/13 04:24:33;;;;;;;4.92;2.80;;;;;;;27.93;59.97;101135.88;1766788;80;21121;-88
2022/06/13 04:27:05;;;;;;;5.58;2.72;;;;;;;27.15;56.91;101134.38;1760859;80;23131;-90
2022/06/13 04:29:47;;;;;;;4.42;2.83;;;;;;;27.31;56.72;101134.25;1759049;80;21074;-86
2022/06/13 04:32:25;;;;;;;5.65;2.83;;;;;;;27.82;55.88;101142.17;1769729;80;21596;-91
2022/06/13 04:34:54;;;;;;;7.47;2.87;;;;;;;28.45;54.60;101133.63;1773644;80;21105;-90
2022/06/13 04:37:28;;;;;;;9.40;3.10;;;;;;;28.85;52.62;101130.56;1719619;80;21064;-93
2022/06/13 04:39:58;;;;;;;7.10;2.67;;;;;;;28.48;50.68;101126.74;1775744;80;21413;-93
2022/06/13 04:42:27;;;;;;;6.37;2.70;;;;;;;27.39;49.75;101133.07;1771910;80;21044;-91
2022/06/13 04:44:53;;;;;;;6.53;2.70;;;;;;;26.29;49.41;101141.50;1743178;80;21053;-92
2022/06/13 04:47:20;;;;;;;7.28;2.62;;;;;;;25.24;49.57;101139.41;1721906;82;21239;-87
2022/06/13 04:49:52;;;;;;;5.72;2.45;;;;;;;24.33;50.02;101136.50;1754703;80;21082;-88
2022/06/13 04:52:24;;;;;;;6.78;3.10;;;;;;;23.61;50.28;101137.78;1774067;80;21698;-87
2022/06/13 04:54:56;;;;;;;7.33;2.83;;;;;;;23.00;50.90;101134.58;1754030;80;21030;-89
2022/06/13 04:57:23;;;;;;;5.50;2.50;;;;;;;22.49;51.37;101135.56;1775369;80;21075;-87
2022/06/13 04:59:49;;;;;;;7.83;2.85;;;;;;;22.09;51.89;101135.32;1757023;80;21355;-89
2022/06/13 05:02:23;;;;;;;5.87;2.72;;;;;;;21.71;52.18;101136.81;1691982;82;21205;-89
2022/06/13 05:04:51;;;;;;;9.88;2.95;;;;;;;21.32;52.42;101148.05;1731043;82;21781;-91
2022/06/13 05:07:22;;;;;;;6.42;2.70;;;;;;;20.99;52.88;101148.47;1722139;82;21028;-86
2022/06/13 05:09:54;;;;;;;7.20;2.67;;;;;;;20.74;53.31;101146.95;1736631;81;21645;-92
2022/06/13 05:12:26;;;;;;;11.53;3.17;;;;;;;20.51;53.53;101151.60;1740360;81;21079;-86
2022/06/13 05:15:19;;;;;;;8.15;2.75;;;;;;;20.20;54.21;101138.07;1718778;82;21669;-86
2022/06/13 05:18:11;;;;;;;9.73;3.17;;;;;;;20.16;54.49;101159.50;1729607;82;21815;-91
2022/06/13 05:21:11;;;;;;;8.03;2.75;;;;;;;19.97;54.96;101159.64;1729823;81;21074;-87
2022/06/13 05:24:06;;;;;;;6.53;3.10;;;;;;;19.90;55.64;101158.36;1735609;81;21123;-87
2022/06/13 05:26:33;;;;;;;6.78;2.80;;;;;;;19.75;56.01;101158.89;1731942;82;21074;-86
2022/06/13 05:29:00;;;;;;;8.48;3.35;;;;;;;19.58;56.35;101161.63;1739519;81;21078;-86
2022/06/13 05:31:27;;;;;;;6.30;2.98;;;;;;;19.41;56.81;101157.72;1732250;81;21749;-86
2022/06/13 05:33:54;;;;;;;6.67;2.95;;;;;;;19.26;57.19;101159.55;1723725;81;21078;-89
2022/06/13 05:36:23;;;;;;;8.38;2.90;;;;;;;19.14;57.52;101160.04;1728013;81;21099;-86
2022/06/13 05:38:56;;;;;;;8.68;2.98;;;;;;;19.01;57.88;101159.65;1738781;82;21082;-86
2022/06/13 05:41:23;;;;;;;11.28;3.25;;;;;;;18.92;58.34;101159.25;1744451;81;21341;-90
2022/06/13 05:43:50;;;;;;;7.10;3.37;;;;;;;18.81;58.51;101154.39;1732996;82;21698;-85
2022/06/13 05:46:29;;;;;;;9.13;3.30;;;;;;;18.71;58.72;101155.25;1754186;81;21064;-90
2022/06/13 05:48:55;;;;;;;7.72;3.27;;;;;;;18.62;58.69;101153.52;1768439;80;21135;-85
2022/06/13 05:51:22;;;;;;;8.88;3.60;;;;;;;18.57;58.99;101152.63;1731104;81;21162;-91
2022/06/13 05:53:49;;;;;;;9.23;3.27;;;;;;;18.55;59.05;101158.41;1726956;81;21150;-90
2022/06/13 05:56:15;;;;;;;10.93;4.25;;;;;;;18.53;59.25;101158.86;1744890;81;21895;-86
2022/06/13 05:58:42;;;;;;;11.38;5.17;;;;;;;18.56;59.47;101159.74;1754411;80;21054;-86
2022/06/13 06:01:09;;;;;;;8.20;3.60;;;;;;;18.59;59.66;101159.72;1748942;81;21056;-86
2022/06/13 06:03:37;;;;;;;12.63;3.80;;;;;;;18.64;59.79;101163.73;1753942;81;21115;-86
2022/06/13 06:06:04;;;;;;;12.75;3.40;;;;;;;18.64;60.00;101159.73;1761993;80;21052;-84
2022/06/13 06:08:33;;;;;;;8.65;3.05;;;;;;;18.62;60.08;101162.84;1714671;83;21744;-91
2022/06/13 06:11:00;;;;;;;13.38;3.52;;;;;;;18.63;60.30;101163.27;1708311;83;21609;-87
2022/06/13 06:13:28;;;;;;;11.25;3.70;;;;;;;18.64;60.45;101157.06;1709877;83;21032;-89
2022/06/13 06:15:55;;;;;;;7.37;3.47;;;;;;;18.61;60.45;101167.72;1698876;83;21322;-90
2022/06/13 06:18:22;;;;;;;10.65;4.75;;;;;;;18.57;60.46;101165.95;1755917;79;21058;-87
2022/06/13 06:20:49;;;;;;;11.03;5.55;;;;;;;18.43;60.50;101163.28;1771376;80;21746;-88
2022/06/13 06:23:16;;;;;;;17.85;5.37;;;;;;;18.26;60.63;101176.61;1770739;80;21607;-84
2022/06/13 06:25:47;;;;;;;10.20;4.80;;;;;;;18.02;61.03;101181.52;1742065;80;35171;-90
2022/06/13 06:28:23;;;;;;;9.40;4.10;;;;;;;17.85;61.42;101184.15;1763940;80;21054;-87
2022/06/13 06:30:52;;;;;;;7.67;4.45;;;;;;;17.66;61.73;101172.09;1713825;83;21130;-84
2022/06/13 06:33:18;;;;;;;9.80;3.52;;;;;;;17.57;62.04;101164.08;1713120;83;21764;-84
2022/06/13 06:35:45;;;;;;;6.85;3.77;;;;;;;17.55;62.28;101158.28;1745024;80;21653;-90
2022/06/13 06:38:12;;;;;;;10.03;4.40;;;;;;;17.50;62.51;101152.95;1738990;81;21045;-91
2022/06/13 06:40:39;;;;;;;15.08;4.53;;;;;;;17.45;62.72;101162.69;1743789;80;21090;-87
2022/06/13 06:43:05;;;;;;;11.33;4.92;;;;;;;17.45;63.18;101181.32;1745322;80;21075;-87
2022/06/13 06:45:32;;;;;;;13.85;5.90;;;;;;;17.47;63.51;101186.20;1745202;80;21732;-91
2022/06/13 06:47:59;;;;;;;12.18;5.35;;;;;;;17.43;63.67;101176.44;1744831;80;21072;-90
2022/06/13 06:50:34;;;;;;;13.20;4.97;;;;;;;17.28;64.18;101175.94;1745097;81;21045;-87
2022/06/13 06:53:01;;;;;;;14.10;4.87;;;;;;;17.11;64.17;101171.87;1745280;82;21079;-87
2022/06/13 07:01:01;;;;;;;9.35;4.20;;;;;;;16.93;65.21;101194.37;1745138;82;21328;-90
2022/06/13 07:03:29;;;;;;;10.38;3.87;;;;;;;16.88;65.57;101193.03;1743153;80;20997;-87
2022/06/13 07:05:55;;;;;;;9.73;3.77;;;;;;;16.86;65.90;101198.78;1733685;82;21067;-87
2022/06/13 07:08:22;;;;;;;10.82;4.25;;;;;;;16.85;66.02;101194.33;1737542;82;21091;-87
2022/06/13 07:10:49;;;;;;;12.05;4.10;;;;;;;16.82;66.19;101198.28;1751517;80;21847;-87
2022/06/13 07:13:18;;;;;;;11.00;3.70;;;;;;;16.75;66.38;101185.38;1767486;81;21545;-87
2022/06/13 07:15:46;;;;;;;11.68;3.35;;;;;;;16.81;66.56;101192.05;1784221;80;21041;-87
2022/06/13 07:18:13;;;;;;;8.83;3.30;;;;;;;16.82;66.69;101194.30;1774737;80;21078;-90
2022/06/13 07:20:39;;;;;;;7.72;3.62;;;;;;;16.83;67.03;101190.32;1773890;80;21730;-90
2022/06/13 07:23:06;;;;;;;10.95;3.67;;;;;;;16.91;67.31;101178.39;1758758;80;21750;-91
2022/06/13 07:25:34;;;;;;;9.95;4.05;;;;;;;17.04;67.68;101181.61;1758909;80;21034;-91
2022/06/13 07:28:01;;;;;;;12.47;3.90;;;;;;;17.17;67.87;101173.67;1766582;80;21631;-90
2022/06/13 07:30:29;;;;;;;11.45;3.85;;;;;;;17.33;68.09;101163.55;1774798;80;21093;-87
2022/06/13 07:32:56;;;;;;;9.80;3.35;;;;;;;17.57;68.14;101158.75;1770161;80;21144;-85
2022/06/13 07:35:24;;;;;;;13.18;3.87;;;;;;;17.83;67.76;101163.22;1775436;80;21730;-85
2022/06/13 07:40:38;;;;;;;9.98;3.87;;;;;;;18.38;67.12;101153.97;1774135;80;21100;-84
2022/06/13 07:43:06;;;;;;;8.25;3.75;;;;;;;18.65;66.66;101147.70;1768786;80;21054;-86
2022/06/13 07:45:35;;;;;;;10.23;3.42;;;;;;;18.85;66.27;101141.48;1770507;80;21126;-85
2022/06/13 07:48:02;;;;;;;11.70;4.83;;;;;;;19.10;66.00;101129.39;1774862;80;21748;-89
2022/06/13 07:50:31;;;;;;;11.48;4.15;;;;;;;19.28;65.86;101126.64;1773248;80;21698;-86
2022/06/13 07:52:59;;;;;;;10.32;4.30;;;;;;;19.53;65.60;101122.05;1772573;80;21648;-89
2022/06/13 07:55:25;;;;;;;11.53;4.12;;;;;;;19.67;65.10;101121.06;1747510;80;21154;-86
2022/06/13 07:57:52;;;;;;;9.55;4.12;;;;;;;19.81;65.05;101112.55;1775362;80;21054;-89
2022/06/13 08:00:25;;;;;;;9.45;3.47;;;;;;;20.01;64.27;101112.41;1737610;81;22427;-86
2022/06/13 08:02:53;;;;;;;6.83;3.42;;;;;;;19.89;63.27;101112.49;1748338;81;21063;-85
2022/06/13 08:05:20;;;;;;;8.75;3.50;;;;;;;19.87;63.57;101109.83;1773475;79;21124;-85
2022/06/13 08:07:47;;;;;;;8.28;3.42;;;;;;;19.80;63.33;101114.77;1775474;80;21144;-85
2022/06/13 08:10:14;;;;;;;10.88;3.30;;;;;;;19.74;63.18;101120.17;1778119;80;21071;-86
2022/06/13 08:12:41;;;;;;;10.65;5.08;;;;;;;19.68;62.92;101125.53;1776152;80;21681;-89
2022/06/13 08:15:08;;;;;;;10.82;4.40;;;;;;;19.62;62.96;101121.11;1775771;80;21852;-89
2022/06/13 08:17:34;;;;;;;16.35;6.45;;;;;;;19.79;63.51;101106.34;1775592;79;21030;-89
2022/06/13 08:20:01;;;;;;;11.28;4.50;;;;;;;20.09;62.92;101098.52;1762469;80;21093;-90
2022/06/13 08:22:28;;;;;;;12.33;4.22;;;;;;;20.22;62.62;101089.95;1765794;79;21102;-86
2022/06/13 08:24:55;;;;;;;10.00;4.65;;;;;;;20.15;62.70;101084.22;1721755;81;21842;-89
2022/06/13 08:27:22;;;;;;;11.80;3.85;;;;;;;20.10;62.61;101087.38;1774957;80;21053;-85
2022/06/13 08:29:54;;;;;;;10.58;3.90;;;;;;;19.93;62.13;101092.86;1775282;80;21039;-86
2022/06/13 08:32:21;;;;;;;9.00;3.95;;;;;;;19.76;62.22;101094.33;1775011;80;21189;-85
2022/06/13 08:34:48;;;;;;;11.57;4.70;;;;;;;19.66;62.25;101099.28;1775174;80;21098;-88
2022/06/13 08:37:15;;;;;;;8.83;4.62;;;;;;;19.59;62.43;101094.41;1775875;80;21725;-85
2022/06/13 08:39:41;;;;;;;8.60;3.60;;;;;;;19.62;62.42;101088.61;1775888;80;21581;-85
2022/06/13 08:42:16;;;;;;;12.28;4.53;;;;;;;19.68;62.02;101088.14;1775940;80;21065;-89
2022/06/13 08:44:56;;;;;;;12.47;4.60;;;;;;;19.69;61.82;101096.57;1774855;79;22167;-86
2022/06/13 08:47:46;;;;;;;10.20;4.10;;;;;;;19.73;61.50;101093.04;1776243;80;21546;-88
2022/06/13 08:50:40;;;;;;;7.25;3.52;;;;;;;19.84;61.59;101089.84;1776130;80;21732;-85
2022/06/13 08:53:20;;;;;;;;;;;;;;;20.02;61.24;101098.59;1778760;79;21558;-88
2022/06/13 08:55:49;;;;;;;11.25;3.77;;;;;;;20.23;60.11;101105.06;1768069;80;20176;-85
2022/06/13 08:58:29;;;;;;;10.58;4.55;;;;;;;20.43;59.99;101083.50;1774947;80;21049;-85
2022/06/13 09:01:09;;;;;;;8.58;3.92;;;;;;;20.83;59.90;101088.42;1757128;79;21346;-89
2022/06/13 09:03:44;;;;;;;14.40;4.85;;;;;;;21.25;59.70;101084.78;1775543;80;22550;-89
2022/06/13 09:06:26;;;;;;;10.95;5.03;;;;;;;21.70;59.23;101078.34;1775917;79;21061;-89
2022/06/13 09:08:58;;;;;;;12.13;4.83;;;;;;;22.05;57.90;101065.25;1769867;80;21093;-89
2022/06/13 09:11:37;;;;;;;18.82;6.78;;;;;;;22.05;57.90;101065.25;1761561;80;21212;-85
2022/06/13 09:14:21;;;;;;;8.23;3.50;;;;;;;22.16;56.90;101087.39;1765530;79;21086;-85
2022/06/13 09:17:08;;;;;;;40.63;7.70;;;;;;;22.36;56.62;101089.76;1773502;80;21740;-85
2022/06/13 09:20:20;;;;;;;6.80;3.15;;;;;;;22.49;55.94;101097.13;1775029;80;21097;-89
2022/06/13 09:23:07;;;;;;;10.28;3.72;;;;;;;22.57;54.81;101087.59;1776268;79;21026;-85
2022/06/13 09:25:54;;;;;;;10.82;2.83;;;;;;;22.74;54.12;101097.98;1775307;80;21038;-89
2022/06/13 09:28:56;;;;;;;7.47;2.20;;;;;;;22.96;53.61;101093.95;1775358;80;21049;-89
2022/06/13 09:31:31;;;;;;;8.28;2.58;;;;;;;23.13;52.82;101086.91;1776118;80;21883;-89
2022/06/13 09:34:09;;;;;;;5.25;2.12;;;;;;;23.25;52.01;101091.12;1744766;80;21097;-87
2022/06/13 09:36:38;;;;;;;5.92;2.60;;;;;;;23.37;51.76;101085.48;1758639;79;21073;-86
2022/06/13 09:39:10;;;;;;;4.80;2.00;;;;;;;23.45;51.54;101082.16;1776554;80;21023;-89
2022/06/13 09:42:01;;;;;;;4.37;1.98;;;;;;;23.56;51.24;101075.19;1776054;80;21062;-85
2022/06/13 09:44:42;;;;;;;5.10;1.95;;;;;;;23.58;51.25;101067.97;1775373;80;21754;-85
2022/06/13 09:47:20;;;;;;;6.03;2.08;;;;;;;23.62;50.87;101063.41;1773169;80;21062;-85
2022/06/13 09:49:55;;;;;;;6.42;2.45;;;;;;;23.67;50.55;101058.81;1773739;79;21145;-89
2022/06/13 09:52:33;;;;;;;7.58;3.00;;;;;;;23.65;50.44;101062.88;1775141;80;21623;-89
2022/06/13 09:55:22;;;;;;;10.32;3.33;;;;;;;23.62;50.66;101065.62;1776129;79;22134;-89
2022/06/13 09:58:22;;;;;;;31.60;4.95;;;;;;;23.55;50.58;101060.44;1773482;80;22439;-89
2022/06/13 10:01:12;;;;;;;8.88;2.70;;;;;;;23.39;50.23;101051.88;1774950;80;21619;-84
2022/06/13 10:04:15;;;;;;;5.45;2.25;;;;;;;23.27;50.46;101039.16;1775398;80;21537;-88
2022/06/13 10:06:55;;;;;;;5.05;2.02;;;;;;;23.32;50.46;101031.45;1769504;80;21156;-85
2022/06/13 10:09:42;;;;;;;8.88;2.22;;;;;;;23.59;50.52;101033.91;1774417;80;21065;-84
2022/06/13 10:12:37;;;;;;;4.45;2.45;;;;;;;23.78;50.21;101035.68;1774564;79;21602;-91
2022/06/13 10:15:15;;;;;;;7.00;2.47;;;;;;;24.03;49.92;101027.92;1745588;80;21134;-89
2022/06/13 10:17:50;;;;;;;6.92;2.33;;;;;;;24.36;49.79;101031.95;1741875;80;21054;-85
2022/06/13 10:20:31;;;;;;;6.05;2.75;;;;;;;24.57;49.43;101031.39;1737938;81;21081;-91
2022/06/13 10:23:05;;;;;;;9.08;2.77;;;;;;;24.72;48.70;101030.06;1746532;80;21087;-89
2022/06/13 10:25:52;;;;;;;8.68;1.85;;;;;;;24.60;47.96;101028.59;1736461;80;21094;-85
2022/06/13 10:28:33;;;;;;;14.50;3.65;;;;;;;24.62;48.21;101024.52;1738411;80;21620;-89
2022/06/13 10:31:22;;;;;;;4.50;2.20;;;;;;;24.64;47.93;101026.25;1722865;81;21098;-89
2022/06/13 10:33:57;;;;;;;9.58;2.95;;;;;;;24.72;47.93;101021.08;1755286;79;21060;-89
2022/06/13 10:37:00;;;;;;;6.17;2.85;;;;;;;24.96;48.10;101027.11;1722144;81;21080;-89
2022/06/13 10:39:27;;;;;;;5.58;2.50;;;;;;;25.06;47.22;101014.67;1744413;80;21712;-89
2022/06/13 10:42:08;;;;;;;8.18;2.33;;;;;;;25.23;47.18;101012.39;1739046;81;21058;-89
2022/06/13 10:44:35;;;;;;;6.08;2.50;;;;;;;25.35;46.95;101002.55;1707988;82;21057;-85
2022/06/13 10:47:13;;;;;;;8.35;4.25;;;;;;;25.55;46.62;101011.34;1733726;80;21162;-87
2022/06/13 10:49:43;;;;;;;12.18;3.52;;;;;;;25.67;45.51;101014.55;1762752;79;21570;-89
2022/06/13 10:52:19;;;;;;;8.35;3.10;;;;;;;25.42;44.74;101019.41;1765473;80;21766;-85
2022/06/13 10:54:50;;;;;;;8.08;2.72;;;;;;;25.24;44.63;101011.91;1749800;79;21065;-85
2022/06/13 10:57:30;;;;;;;7.20;2.55;;;;;;;25.16;44.43;101022.43;1767830;79;21068;-90
2022/06/13 11:00:23;;;;;;;6.33;3.27;;;;;;;24.87;44.13;101022.44;1768102;80;21575;-85
2022/06/13 11:02:50;;;;;;;4.80;2.77;;;;;;;24.23;44.07;101031.39;1770922;80;21131;-85
2022/06/13 11:05:21;;;;;;;4.50;3.33;;;;;;;23.88;45.02;101060.59;1762367;79;21726;-90
2022/06/13 11:07:52;;;;;;;6.40;4.03;;;;;;;23.49;44.33;101082.97;1774989;79;21100;-91
2022/06/13 11:10:36;;;;;;;3.50;2.60;;;;;;;22.61;43.49;101101.36;1771750;79;21052;-91
2022/06/13 11:13:04;;;;;;;5.03;1.50;;;;;;;21.72;43.59;101087.70;1774211;80;21432;-84
2022/06/13 11:24:57;;;;;;;2.47;1.27;;;;;;;19.59;47.41;101083.28;1766315;80;21072;-85
2022/06/13 11:27:42;;;;;;;3.77;1.57;;;;;;;18.93;48.71;101066.77;1767218;80;21155;-85
2022/06/13 11:30:43;;;;;;;4.58;2.35;;;;;;;18.29;49.69;101061.16;1770150;80;21151;-85
2022/06/13 11:33:20;;;;;;;6.67;3.98;;;;;;;17.79;51.08;101065.17;1761245;80;21773;-85
2022/06/13 11:35:53;;;;;;;6.35;3.12;;;;;;;17.42;52.17;101064.23;1759528;80;21523;-85
2022/06/13 11:38:23;;;;;;;;;;;;;;;17.33;53.11;101083.72;1775357;80;21132;-85
2022/06/13 11:41:18;;;;;;;5.10;1.70;;;;;;;17.38;53.89;101074.41;1749972;80;20379;-85
2022/06/13 11:43:59;;;;;;;5.53;2.37;;;;;;;17.50;54.12;101079.77;1764898;80;21290;-90
2022/06/13 11:47:01;;;;;;;3.20;1.70;;;;;;;17.60;54.37;101080.20;1759300;80;21773;-89
2022/06/13 11:49:41;;;;;;;3.60;2.30;;;;;;;17.61;54.71;101089.11;1771185;80;21077;-90
2022/06/13 11:53:35;;;;;;;8.03;2.35;;;;;;;17.61;55.34;101086.45;1768069;79;21683;-90
2022/06/13 11:54:55;;;;;;;2.85;1.82;;;;;;;17.56;55.40;101087.75;1728448;81;21068;-85
2022/06/13 11:57:34;;;;;;;5.58;2.17;;;;;;;17.45;56.05;101083.73;1722264;82;21656;-85
2022/06/13 12:00:12;;;;;;;7.60;3.33;;;;;;;17.40;56.45;101078.87;1735722;81;21783;-90
2022/06/13 12:02:56;;;;;;;8.00;4.25;;;;;;;17.52;56.71;101071.34;1757699;79;21492;-85
2022/06/13 12:05:36;;;;;;;8.65;3.00;;;;;;;17.69;56.90;101076.23;1761753;80;21041;-90
2022/06/13 12:08:17;;;;;;;6.22;2.80;;;;;;;17.83;56.74;101071.35;1770864;80;21122;-85
2022/06/13 12:11:16;;;;;;;8.13;3.15;;;;;;;17.67;56.71;101071.80;1745003;80;21549;-89
2022/06/13 12:13:45;;;;;;;6.72;2.50;;;;;;;17.49;57.16;101081.97;1760812;80;21890;-89
2022/06/13 12:16:47;;;;;;;9.90;3.50;;;;;;;17.25;57.36;101077.05;1771160;80;21058;-89
2022/06/13 12:19:33;;;;;;;9.15;3.02;;;;;;;17.08;57.94;101083.66;1769402;80;21045;-89
2022/06/13 12:22:22;;;;;;;10.00;2.80;;;;;;;17.10;58.58;101085.88;1770314;80;21065;-91
2022/06/13 12:25:13;;;;;;;9.28;2.90;;;;;;;17.19;58.80;101089.02;1770765;80;21361;-85